createdAt,value
2022-12-01T00:00:44.415Z,101560.69
2022-12-01T00:03:45.954Z,101554.53
2022-12-01T00:06:47.486Z,101561.00
2022-12-01T00:10:07.561Z,101550.25
2022-12-01T00:13:09.119Z,101555.97
2022-12-01T00:16:16.276Z,101552.41
2022-12-01T00:19:17.875Z,101555.53
2022-12-01T00:22:20.326Z,101561.94
2022-12-01T00:25:22.169Z,101563.97
2022-12-01T00:28:23.659Z,101561.50
2022-12-01T00:31:26.801Z,101561.50
2022-12-01T00:34:28.717Z,101556.38
2022-12-01T00:37:32.052Z,101561.78
2022-12-01T00:40:33.577Z,101555.78
2022-12-01T00:43:35.645Z,101555.06
2022-12-01T00:46:37.261Z,101560.63
2022-12-01T00:49:38.862Z,101558.06
2022-12-01T00:52:40.422Z,101560.91
2022-12-01T00:55:41.901Z,101557.47
2022-12-01T00:58:43.427Z,101566.63
2022-12-01T01:01:44.987Z,101564.00
2022-12-01T01:04:46.553Z,101565.16
2022-12-01T01:07:48.107Z,101568.88
2022-12-01T01:10:49.803Z,101568.16
2022-12-01T01:13:51.381Z,101568.31
2022-12-01T01:16:54.027Z,101577.44
2022-12-01T01:19:55.606Z,101579.28
2022-12-01T01:22:58.216Z,101577.59
2022-12-01T01:26:05.835Z,101580.44
2022-12-01T01:29:07.835Z,101575.28
2022-12-01T01:32:09.367Z,101581.69
2022-12-01T01:35:10.829Z,101582.81
2022-12-01T01:38:12.413Z,101579.25
2022-12-01T01:41:14.284Z,101586.56
2022-12-01T01:44:54.307Z,101579.41
2022-12-01T01:47:59.615Z,101593.13
2022-12-01T01:51:02.189Z,101592.38
2022-12-01T01:54:15.475Z,101590.69
2022-12-01T01:57:23.614Z,101585.38
2022-12-01T02:00:25.274Z,101587.22
2022-12-01T02:03:28.978Z,101601.84
2022-12-01T02:06:30.693Z,101597.38
2022-12-01T02:09:32.218Z,101591.22
2022-12-01T02:13:01.713Z,101593.94
2022-12-01T02:16:22.422Z,101593.06
2022-12-01T02:19:55.616Z,101592.34
2022-12-01T02:23:21.882Z,101598.91
2022-12-01T02:26:49.650Z,101600.75
2022-12-01T02:30:03.407Z,101593.75
2022-12-01T02:33:20.326Z,101599.06
2022-12-01T02:36:29.646Z,101597.47
2022-12-01T02:39:36.358Z,101592.03
2022-12-01T02:42:54.157Z,101592.91
2022-12-01T02:46:10.985Z,101596.47
2022-12-01T02:49:18.218Z,101599.34
2022-12-01T02:52:23.063Z,101601.03
2022-12-01T02:55:24.532Z,101595.63
2022-12-01T02:58:26.094Z,101594.59
2022-12-01T03:01:46.186Z,101590.06
2022-12-01T03:04:55.863Z,101590.19
2022-12-01T03:08:22.444Z,101599.06
2022-12-01T03:11:36.461Z,101598.31
2022-12-01T03:15:03.417Z,101596.47
2022-12-01T03:18:35.087Z,101608.19
2022-12-01T03:21:41.990Z,101605.63
2022-12-01T03:24:47.950Z,101612.03
2022-12-01T03:28:20.236Z,101604.88
2022-12-01T03:31:28.588Z,101606.59
2022-12-01T03:34:51.431Z,101605.75
2022-12-01T03:38:02.663Z,101601.44
2022-12-01T03:41:13.081Z,101607.03
2022-12-01T03:44:21.036Z,101606.13
2022-12-01T03:47:31.952Z,101605.44
2022-12-01T03:50:46.317Z,101609.00
2022-12-01T03:53:51.660Z,101609.13
2022-12-01T03:57:00.092Z,101603.84
2022-12-01T04:00:02.564Z,101615.69
2022-12-01T04:03:19.155Z,101608.41
2022-12-01T04:06:20.718Z,101615.69
2022-12-01T04:09:22.169Z,101609.28
2022-12-01T04:12:29.791Z,101610.13
2022-12-01T04:15:31.308Z,101611.00
2022-12-01T04:18:32.757Z,101611.72
2022-12-01T04:21:34.217Z,101617.88
2022-12-01T04:24:35.769Z,101617.63
2022-12-01T04:27:37.925Z,101618.34
2022-12-01T04:30:39.386Z,101616.34
2022-12-01T04:33:40.890Z,101620.78
2022-12-01T04:36:42.358Z,101619.50
2022-12-01T04:39:44.622Z,101622.94
2022-12-01T04:42:46.133Z,101620.13
2022-12-01T04:45:47.660Z,101620.97
2022-12-01T04:48:49.327Z,101619.97
2022-12-01T04:51:51.068Z,101624.41
2022-12-01T04:54:52.556Z,101626.13
2022-12-01T04:57:54.059Z,101619.84
2022-12-01T05:00:55.609Z,101623.28
2022-12-01T05:03:57.222Z,101628.72
2022-12-01T05:06:58.700Z,101636.88
2022-12-01T05:10:00.198Z,101628.84
2022-12-01T05:13:02.409Z,101636.00
2022-12-01T05:16:09.327Z,101632.41
2022-12-01T05:19:29.365Z,101633.41
2022-12-01T05:23:03.417Z,101641.56
2022-12-01T05:25:52.979Z,101636.25
2022-12-01T05:28:54.585Z,101636.53
2022-12-01T05:31:56.141Z,101638.41
2022-12-01T05:35:00.703Z,101644.84
2022-12-01T05:38:07.774Z,101649.38
2022-12-01T05:41:10.306Z,101650.38
2022-12-01T05:44:11.800Z,101646.09
2022-12-01T05:47:13.277Z,101648.81
2022-12-01T05:50:14.876Z,101649.66
2022-12-01T05:53:16.695Z,101657.81
2022-12-01T05:56:18.671Z,101654.22
2022-12-01T05:59:20.113Z,101653.50
2022-12-01T06:02:21.795Z,101659.78
2022-12-01T06:05:23.380Z,101664.25
2022-12-01T06:08:25.007Z,101665.09
2022-12-01T06:11:26.532Z,101672.25
2022-12-01T06:14:28.003Z,101676.69
2022-12-01T06:17:29.579Z,101672.00
2022-12-01T06:20:31.105Z,101673.59
2022-12-01T06:23:33.214Z,101678.88
2022-12-01T06:26:34.662Z,101681.47
2022-12-01T06:29:41.848Z,101675.88
2022-12-01T06:32:43.832Z,101686.75
2022-12-01T06:35:45.354Z,101683.91
2022-12-01T06:38:46.858Z,101679.47
2022-12-01T06:41:48.468Z,101682.19
2022-12-01T06:44:50.027Z,101690.34
2022-12-01T06:47:55.753Z,101692.06
2022-12-01T06:51:01.258Z,101694.78
2022-12-01T06:54:05.655Z,101688.59
2022-12-01T06:57:07.331Z,101694.19
2022-12-01T07:00:09.723Z,101698.72
2022-12-01T07:03:11.332Z,101696.03
2022-12-01T07:06:12.769Z,101692.59
2022-12-01T07:09:14.231Z,101696.28
2022-12-01T07:12:15.760Z,101699.16
2022-12-01T07:15:17.311Z,101694.69
2022-12-01T07:18:18.899Z,101700.28
2022-12-01T07:21:20.387Z,101709.41
2022-12-01T07:24:21.851Z,101709.56
2022-12-01T07:27:23.281Z,101703.41
2022-12-01T07:30:28.465Z,101711.66
2022-12-01T07:33:30.775Z,101711.81
2022-12-01T07:36:32.816Z,101717.38
2022-12-01T07:39:34.277Z,101715.66
2022-12-01T07:42:35.779Z,101722.06
2022-12-01T07:45:37.277Z,101715.03
2022-12-01T07:48:40.580Z,101722.34
2022-12-01T07:51:42.095Z,101722.59
2022-12-01T07:54:43.563Z,101719.88
2022-12-01T07:57:45.017Z,101719.25
2022-12-01T08:00:46.524Z,101716.56
2022-12-01T08:03:55.394Z,101721.97
2022-12-01T08:06:56.829Z,101728.53
2022-12-01T08:09:58.334Z,101722.41
2022-12-01T08:12:59.872Z,101732.38
2022-12-01T08:16:06.121Z,101717.09
2022-12-01T08:19:10.647Z,101729.94
2022-12-01T08:22:12.076Z,101731.91
2022-12-01T08:25:13.525Z,101737.47
2022-12-01T08:28:15.343Z,101740.31
2022-12-01T08:31:29.246Z,101744.78
2022-12-01T08:34:30.771Z,101738.72
2022-12-01T08:37:32.214Z,101747.00
2022-12-01T08:40:33.695Z,101747.13
2022-12-01T08:47:01.339Z,101754.53
2022-12-01T08:50:04.856Z,101755.53
2022-12-01T08:53:06.283Z,101754.78
2022-12-01T08:56:13.203Z,101744.78
2022-12-01T08:59:14.936Z,101755.91
2022-12-01T09:02:18.183Z,101755.06
2022-12-01T09:05:19.802Z,101760.59
2022-12-01T09:08:34.006Z,101757.78
2022-12-01T09:11:35.537Z,101759.75
2022-12-01T09:14:41.599Z,101762.47
2022-12-01T09:17:43.027Z,101760.75
2022-12-01T09:20:44.465Z,101767.88
2022-12-01T09:23:46.467Z,101770.50
2022-12-01T09:26:48.078Z,101776.78
2022-12-01T09:29:49.595Z,101770.50
2022-12-01T09:32:51.274Z,101770.50
2022-12-01T09:35:52.727Z,101772.19
2022-12-01T09:38:54.509Z,101760.34
2022-12-01T09:42:09.286Z,101766.66
2022-12-01T09:45:39.728Z,101754.06
2022-12-01T09:48:44.241Z,101754.06
2022-12-01T09:51:46.050Z,101753.31
2022-12-01T09:54:47.814Z,101749.75
2022-12-01T09:57:52.219Z,101755.06
2022-12-01T10:00:54.667Z,101754.31
2022-12-01T10:03:59.355Z,101757.03
2022-12-01T10:07:22.993Z,101746.28
2022-12-01T10:10:38.295Z,101740.00
2022-12-01T10:13:41.896Z,101751.13
2022-12-01T10:17:12.311Z,101747.41
2022-12-01T10:20:40.693Z,101739.41
2022-12-01T10:24:07.242Z,101738.56
2022-12-01T10:27:31.852Z,101740.38
2022-12-01T10:30:40.722Z,101740.66
2022-12-01T10:33:58.827Z,101736.22
2022-12-01T10:37:00.694Z,101742.63
2022-12-01T10:40:02.337Z,101739.19
2022-12-01T10:43:03.908Z,101740.28
2022-12-01T10:46:20.931Z,101734.75
2022-12-01T10:49:36.255Z,101737.56
2022-12-01T10:52:41.962Z,101728.69
2022-12-01T10:55:47.932Z,101731.66
2022-12-01T10:58:53.835Z,101733.38
2022-12-01T11:01:57.609Z,101731.66
2022-12-01T11:05:05.462Z,101727.97
2022-12-01T11:08:07.076Z,101727.22
2022-12-01T11:11:23.540Z,101728.69
2022-12-01T11:14:44.842Z,101729.66
2022-12-01T11:17:46.379Z,101715.25
2022-12-01T11:20:48.472Z,101723.38
2022-12-01T11:23:52.199Z,101717.84
2022-12-01T11:26:55.308Z,101717.84
2022-12-01T11:30:29.393Z,101715.88
2022-12-01T11:33:39.516Z,101716.84
2022-12-01T11:36:48.523Z,101715.88
2022-12-01T11:39:52.282Z,101709.69
2022-12-01T11:42:57.171Z,101717.69
2022-12-01T11:46:03.730Z,101711.41
2022-12-01T11:49:06.355Z,101715.25
2022-12-01T11:52:23.552Z,101711.56
2022-12-01T11:55:27.853Z,101716.09
2022-12-01T11:58:29.430Z,101705.50
2022-12-01T12:01:50.443Z,101705.41
2022-12-01T12:05:37.499Z,101710.94
2022-12-01T12:08:51.359Z,101703.81
2022-12-01T12:12:29.736Z,101703.91
2022-12-01T12:15:37.010Z,101704.91
2022-12-01T12:19:00.298Z,101703.19
2022-12-01T12:22:19.867Z,101697.03
2022-12-01T12:25:47.807Z,101699.88
2022-12-01T12:28:59.458Z,101690.88
2022-12-01T12:32:39.805Z,101691.84
2022-12-01T12:35:59.416Z,101683.13
2022-12-01T12:39:52.344Z,101694.72
2022-12-01T12:43:21.636Z,101685.72
2022-12-01T12:46:32.369Z,101683.13
2022-12-01T12:49:46.219Z,101692.97
2022-12-01T12:52:51.516Z,101688.53
2022-12-01T12:55:58.755Z,101696.56
2022-12-01T12:59:11.455Z,101692.72
2022-12-01T13:02:15.827Z,101688.28
2022-12-01T13:05:38.675Z,101690.88
2022-12-01T13:08:45.375Z,101686.31
2022-12-01T13:11:53.322Z,101676.31
2022-12-01T13:15:01.380Z,101687.03
2022-12-01T13:18:13.676Z,101682.34
2022-12-01T13:21:19.324Z,101677.06
2022-12-01T13:24:23.966Z,101670.63
2022-12-01T13:27:30.187Z,101671.50
2022-12-01T13:30:31.908Z,101664.34
2022-12-01T13:33:34.784Z,101667.91
2022-12-01T13:36:48.939Z,101667.91
2022-12-01T13:39:55.176Z,101674.22
2022-12-01T13:42:56.718Z,101664.34
2022-12-01T13:46:02.645Z,101669.66
2022-12-01T13:49:04.582Z,101672.47
2022-12-01T13:52:21.250Z,101668.66
2022-12-01T13:55:28.352Z,101669.50
2022-12-01T13:58:32.907Z,101675.94
2022-12-01T14:01:45.617Z,101678.53
2022-12-01T14:04:47.783Z,101681.25
2022-12-01T14:07:51.691Z,101674.81
2022-12-01T14:11:29.506Z,101673.81
2022-12-01T14:14:38.914Z,101678.38
2022-12-01T14:17:41.534Z,101678.53
2022-12-01T14:20:48.289Z,101684.66
2022-12-01T14:24:04.893Z,101685.41
2022-12-01T14:27:07.938Z,101691.81
2022-12-01T14:30:50.228Z,101692.56
2022-12-01T14:33:58.579Z,101697.00
2022-12-01T14:37:05.942Z,101700.31
2022-12-01T14:40:21.255Z,101704.78
2022-12-01T14:43:45.448Z,101699.34
2022-12-01T14:46:54.680Z,101704.53
2022-12-01T14:50:01.355Z,101703.66
2022-12-01T14:53:18.927Z,101709.94
2022-12-01T14:56:22.762Z,101706.22
2022-12-01T14:59:26.630Z,101708.09
2022-12-01T15:02:28.266Z,101701.81
2022-12-01T15:05:32.417Z,101710.69
2022-12-01T15:08:58.324Z,101707.81
2022-12-01T15:12:01.149Z,101704.25
2022-12-01T15:15:23.472Z,101695.16
2022-12-01T15:18:31.852Z,101693.28
2022-12-01T15:21:33.443Z,101691.53
2022-12-01T15:24:35.253Z,101685.16
2022-12-01T15:27:36.818Z,101684.28
2022-12-01T15:30:40.614Z,101681.56
2022-12-01T15:33:52.014Z,101682.28
2022-12-01T15:36:54.375Z,101675.16
2022-12-01T15:40:43.453Z,101676.72
2022-12-01T15:43:35.151Z,101673.91
2022-12-01T15:46:36.650Z,101683.88
2022-12-01T15:49:48.964Z,101676.19
2022-12-01T15:52:50.471Z,101680.66
2022-12-01T15:55:58.605Z,101685.81
2022-12-01T15:59:06.582Z,101686.41
2022-12-01T16:02:20.528Z,101681.72
2022-12-01T16:05:26.538Z,101681.59
2022-12-01T16:08:29.198Z,101685.03
2022-12-01T16:11:30.755Z,101683.91
2022-12-01T16:14:33.855Z,101685.38
2022-12-01T16:18:19.071Z,101687.69
2022-12-01T16:21:22.706Z,101692.00
2022-12-01T16:24:29.764Z,101692.56
2022-12-01T16:27:32.165Z,101691.44
2022-12-01T16:30:39.109Z,101696.50
2022-12-01T16:33:40.672Z,101697.09
2022-12-01T16:36:42.119Z,101690.66
2022-12-01T16:39:43.921Z,101690.56
2022-12-01T16:42:46.404Z,101689.41
2022-12-01T16:45:54.902Z,101693.84
2022-12-01T16:48:56.372Z,101678.56
2022-12-01T16:52:01.136Z,101696.50
2022-12-01T16:55:12.976Z,101699.50
2022-12-01T16:58:14.503Z,101693.91
2022-12-01T17:01:16.045Z,101693.97
2022-12-01T17:04:17.881Z,101693.84
2022-12-01T17:07:19.376Z,101699.75
2022-12-01T17:10:22.127Z,101694.66
2022-12-01T17:13:24.635Z,101683.31
2022-12-01T17:16:26.250Z,101693.06
2022-12-01T17:19:27.831Z,101692.66
2022-12-01T17:22:29.401Z,101691.44
2022-12-01T17:25:31.632Z,101686.59
2022-12-01T17:28:33.092Z,101692.63
2022-12-01T17:31:34.605Z,101693.38
2022-12-01T17:34:36.176Z,101696.78
2022-12-01T17:37:37.634Z,101700.25
2022-12-01T17:40:39.154Z,101692.84
2022-12-01T17:43:41.182Z,101699.75
2022-12-01T17:46:42.730Z,101685.91
2022-12-01T17:49:44.253Z,101689.09
2022-12-01T17:52:46.416Z,101686.69
2022-12-01T17:55:47.909Z,101693.47
2022-12-01T17:58:50.510Z,101692.06
2022-12-01T18:01:52.149Z,101698.94
2022-12-01T18:04:54.169Z,101695.09
2022-12-01T18:07:55.928Z,101702.13
2022-12-01T18:11:02.375Z,101702.72
2022-12-01T18:14:03.954Z,101704.44
2022-12-01T18:17:05.952Z,101698.88
2022-12-01T18:20:08.245Z,101704.03
2022-12-01T18:23:11.327Z,101702.91
2022-12-01T18:26:15.965Z,101703.66
2022-12-01T18:29:25.765Z,101702.53
2022-12-01T18:32:27.273Z,101708.81
2022-12-01T18:35:31.731Z,101713.97
2022-12-01T18:38:33.519Z,101708.53
2022-12-01T18:41:35.658Z,101714.59
2022-12-01T18:44:38.770Z,101705.31
2022-12-01T18:47:40.320Z,101704.16
2022-12-01T18:50:41.972Z,101699.44
2022-12-01T18:53:45.348Z,101711.03
2022-12-01T18:56:51.279Z,101701.75
2022-12-01T18:59:52.817Z,101701.75
2022-12-01T19:02:54.504Z,101702.53
2022-12-01T19:05:56.042Z,101702.41
2022-12-01T19:09:00.108Z,101700.38
2022-12-01T19:12:02.209Z,101695.81
2022-12-01T19:15:04.299Z,101701.09
2022-12-01T19:18:06.148Z,101699.25
2022-12-01T19:21:09.724Z,101704.56
2022-12-01T19:24:11.373Z,101697.25
2022-12-01T19:27:12.997Z,101694.69
2022-12-01T19:30:14.659Z,101698.28
2022-12-01T19:33:16.672Z,101695.56
2022-12-01T19:36:20.496Z,101692.84
2022-12-01T19:39:22.281Z,101692.84
2022-12-01T19:42:23.816Z,101704.44
2022-12-01T19:45:25.518Z,101699.84
2022-12-01T19:48:26.991Z,101696.13
2022-12-01T19:51:36.839Z,101694.13
2022-12-01T19:54:39.068Z,101698.72
2022-12-01T19:57:40.532Z,101700.44
2022-12-01T20:00:42.094Z,101697.59
2022-12-01T20:03:51.055Z,101708.31
2022-12-01T20:06:52.556Z,101700.16
2022-12-01T20:09:54.035Z,101698.31
2022-12-01T20:12:55.598Z,101700.75
2022-12-01T20:16:03.236Z,101701.50
2022-12-01T20:19:05.958Z,101696.91
2022-12-01T20:22:07.572Z,101696.91
2022-12-01T20:25:09.797Z,101694.03
2022-12-01T20:28:11.313Z,101693.19
2022-12-01T20:31:16.218Z,101694.75
2022-12-01T20:34:21.567Z,101693.78
2022-12-01T20:37:23.018Z,101694.75
2022-12-01T20:40:24.506Z,101705.50
2022-12-01T20:43:26.086Z,101700.94
2022-12-01T20:46:27.669Z,101695.47
2022-12-01T20:49:29.520Z,101688.19
2022-12-01T20:52:31.162Z,101693.50
2022-12-01T20:55:34.824Z,101688.91
2022-12-01T20:58:37.851Z,101688.06
2022-12-01T21:01:39.721Z,101689.66
2022-12-01T21:04:41.319Z,101691.34
2022-12-01T21:07:42.851Z,101683.19
2022-12-01T21:10:45.611Z,101687.78
2022-12-01T21:13:47.155Z,101689.50
2022-12-01T21:16:50.465Z,101680.47
2022-12-01T21:20:25.987Z,101677.47
2022-12-01T21:23:28.106Z,101681.19
2022-12-01T21:26:29.555Z,101675.63
2022-12-01T21:29:39.902Z,101681.78
2022-12-01T21:32:44.232Z,101680.06
2022-12-01T21:35:45.979Z,101671.06
2022-12-01T21:38:50.254Z,101669.19
2022-12-01T21:41:54.682Z,101673.78
2022-12-01T21:44:57.083Z,101669.31
2022-12-01T21:48:06.153Z,101668.47
2022-12-01T21:51:20.668Z,101664.75
2022-12-01T21:54:22.922Z,101658.44
2022-12-01T21:57:43.205Z,101663.88
2022-12-01T22:00:45.501Z,101668.63
2022-12-01T22:03:47.452Z,101668.75
2022-12-01T22:06:52.641Z,101661.72
2022-12-01T22:09:54.189Z,101660.13
2022-12-01T22:12:56.082Z,101658.44
2022-12-01T22:15:57.597Z,101656.84
2022-12-01T22:19:17.584Z,101659.69
2022-12-01T22:22:24.628Z,101654.53
2022-12-01T22:25:27.213Z,101653.09
2022-12-01T22:28:28.940Z,101653.25
2022-12-01T22:31:31.089Z,101648.06
2022-12-01T22:34:33.535Z,101656.50
2022-12-01T22:37:45.963Z,101644.75
2022-12-01T22:41:14.064Z,101640.59
2022-12-01T22:44:15.540Z,101643.75
2022-12-01T22:47:17.257Z,101647.56
2022-12-01T22:50:26.961Z,101643.09
2022-12-01T22:53:30.716Z,101645.25
2022-12-01T22:56:37.613Z,101644.50
2022-12-01T22:59:42.490Z,101641.06
2022-12-01T23:02:44.191Z,101629.63
2022-12-01T23:05:45.762Z,101634.31
2022-12-01T23:08:47.244Z,101637.16
2022-12-01T23:11:58.284Z,101630.03
2022-12-01T23:15:14.618Z,101633.03
2022-12-01T23:18:29.114Z,101630.56
2022-12-01T23:21:30.726Z,101629.13
2022-12-01T23:24:34.002Z,101629.41
2022-12-01T23:27:37.394Z,101631.38
2022-12-01T23:30:42.343Z,101621.75
2022-12-01T23:33:43.932Z,101617.47
2022-12-01T23:36:48.816Z,101624.75
2022-12-01T23:39:50.933Z,101622.44
2022-12-01T23:42:52.484Z,101618.13
2022-12-01T23:46:09.603Z,101623.84
2022-12-01T23:49:15.450Z,101615.84
2022-12-01T23:52:19.980Z,101611.66
2022-12-01T23:55:25.952Z,101610.94
2022-12-01T23:58:27.943Z,101609.22
